Time;durP1;ratioP1;P1;durP2;ratioP2;P2;SDS_P1;SDS_P2;PMS_P1;PMS_P2;Temp;Humidity;BMP_temperature;BMP_pressure;BME280_temperature;BME280_humidity;BME280_pressure;Samples;Min_cycle;Max_cycle;Signal;HPM_P1;HPM_P2
2022/04/29 00:02:10;;;;;;;5.80;3.88;;;17.60;61.20;;;;;;5085334;28;20071;-62
2022/04/29 00:04:36;;;;;;;5.25;3.67;;;17.60;61.20;;;;;;5060867;28;20387;-61
2022/04/29 00:07:03;;;;;;;9.30;3.90;;;17.50;61.30;;;;;;5049992;28;20029;-62
2022/04/29 00:09:28;;;;;;;5.90;3.80;;;17.50;61.30;;;;;;5085959;28;20028;-61
2022/04/29 00:11:54;;;;;;;5.88;4.05;;;17.50;61.40;;;;;;5085397;28;20062;-61
2022/04/29 00:14:20;;;;;;;8.90;4.10;;;17.40;61.40;;;;;;5085007;28;20511;-61
2022/04/29 00:16:45;;;;;;;7.88;4.28;;;17.50;61.60;;;;;;5050611;28;20632;-62
2022/04/29 00:19:11;;;;;;;4.95;3.88;;;17.40;61.60;;;;;;5084204;28;20051;-61
2022/04/29 00:21:37;;;;;;;6.32;3.50;;;17.30;61.60;;;;;;5065306;28;20040;-61
2022/04/29 00:24:02;;;;;;;6.53;3.95;;;17.30;61.60;;;;;;5084962;28;20375;-62
2022/04/29 00:26:28;;;;;;;5.07;3.83;;;17.30;61.70;;;;;;5084263;28;20527;-61
2022/04/29 00:28:53;;;;;;;8.18;4.20;;;17.20;61.70;;;;;;5085517;28;20395;-62
2022/04/29 00:31:19;;;;;;;7.47;3.78;;;17.20;61.90;;;;;;5079326;28;20104;-61
2022/04/29 00:33:44;;;;;;;7.70;4.07;;;17.20;62.00;;;;;;5065014;28;20230;-61
2022/04/29 00:36:10;;;;;;;7.65;3.50;;;17.10;62.00;;;;;;5084746;28;20032;-60
2022/04/29 00:38:35;;;;;;;5.13;3.80;;;17.10;62.00;;;;;;5058699;28;20020;-62
2022/04/29 00:41:01;;;;;;;6.88;4.00;;;17.10;62.10;;;;;;5063467;28;20468;-61
2022/04/29 00:43:27;;;;;;;4.50;3.70;;;17.00;62.10;;;;;;5062379;28;20039;-61
2022/04/29 00:45:53;;;;;;;7.03;3.53;;;17.00;62.30;;;;;;5085231;28;20020;-61
2022/04/29 00:48:18;;;;;;;3.40;3.10;;;17.00;62.40;;;;;;5082956;28;20028;-61
2022/04/29 00:50:44;;;;;;;6.63;3.65;;;16.90;62.40;;;;;;5084552;28;20069;-62
2022/04/29 00:53:11;;;;;;;5.57;3.65;;;16.90;62.40;;;;;;5084375;28;20662;-61
2022/04/29 00:55:37;;;;;;;4.93;3.33;;;16.80;62.50;;;;;;5055607;28;20023;-61
2022/04/29 00:58:16;;;;;;;6.10;3.60;;;16.80;62.50;;;;;;5047697;28;20408;-62
2022/04/29 01:00:42;;;;;;;6.45;4.13;;;16.80;62.70;;;;;;5047944;28;20028;-61
2022/04/29 01:03:11;;;;;;;6.50;3.67;;;16.70;62.70;;;;;;5084894;28;20448;-62
2022/04/29 01:05:37;;;;;;;5.93;3.50;;;16.70;62.70;;;;;;5057661;28;20101;-61
2022/04/29 01:08:03;;;;;;;4.65;3.28;;;16.70;62.80;;;;;;5065824;28;20410;-61
2022/04/29 01:10:28;;;;;;;4.70;3.63;;;16.70;62.90;;;;;;5084113;28;20467;-61
2022/04/29 01:12:57;;;;;;;7.25;3.60;;;16.60;62.80;;;;;;5084808;28;20044;-61
2022/04/29 01:15:22;;;;;;;4.78;3.90;;;16.60;63.00;;;;;;5059813;28;20070;-62
2022/04/29 01:17:49;;;;;;;4.75;2.95;;;16.60;63.10;;;;;;5056422;28;20095;-62
2022/04/29 01:20:17;;;;;;;4.65;3.58;;;16.60;63.20;;;;;;5063928;28;20016;-62
2022/04/29 01:22:43;;;;;;;7.75;3.90;;;16.50;63.30;;;;;;5063476;28;20116;-61
2022/04/29 01:25:09;;;;;;;5.90;3.25;;;16.50;63.30;;;;;;5034693;28;20120;-61
2022/04/29 01:27:35;;;;;;;4.82;3.35;;;16.50;63.30;;;;;;5082163;28;20044;-61
2022/04/29 01:30:02;;;;;;;5.57;3.20;;;16.50;63.20;;;;;;5057278;28;20036;-61
2022/04/29 01:32:28;;;;;;;4.93;3.47;;;16.40;63.30;;;;;;5064724;28;20487;-61
2022/04/29 01:34:53;;;;;;;4.95;3.35;;;16.40;63.40;;;;;;5048886;28;20032;-61
2022/04/29 01:37:19;;;;;;;4.90;3.33;;;16.40;63.40;;;;;;5083806;28;20039;-62
2022/04/29 01:39:44;;;;;;;3.78;3.22;;;16.30;63.40;;;;;;5083675;28;20119;-62
2022/04/29 01:42:10;;;;;;;4.80;3.58;;;16.30;63.50;;;;;;5083326;28;20398;-62
2022/04/29 01:44:36;;;;;;;3.30;3.00;;;16.20;63.60;;;;;;5082909;28;20024;-61
2022/04/29 01:47:02;;;;;;;3.75;3.25;;;16.30;63.70;;;;;;5048230;28;20123;-61
2022/04/29 01:49:27;;;;;;;7.05;3.70;;;16.20;63.60;;;;;;5074627;28;20063;-61
2022/04/29 01:51:54;;;;;;;3.95;3.22;;;16.20;63.70;;;;;;5083572;28;20173;-60
2022/04/29 01:54:19;;;;;;;5.40;2.97;;;16.10;63.80;;;;;;5048136;28;20825;-61
2022/04/29 01:56:47;;;;;;;4.32;3.47;;;16.10;63.90;;;;;;5083455;28;20153;-60
2022/04/29 01:59:13;;;;;;;3.58;2.95;;;16.10;63.90;;;;;;5059132;28;20115;-61
2022/04/29 02:01:38;;;;;;;3.90;3.15;;;16.00;64.00;;;;;;5047666;28;20193;-62
2022/04/29 02:04:04;;;;;;;3.38;3.05;;;16.00;64.00;;;;;;5061833;28;20024;-61
2022/04/29 02:06:29;;;;;;;4.05;3.50;;;16.00;64.00;;;;;;5063000;28;20080;-62
2022/04/29 02:08:55;;;;;;;7.13;3.28;;;16.00;64.20;;;;;;5048197;28;20020;-61
2022/04/29 02:11:21;;;;;;;5.60;3.20;;;16.00;64.20;;;;;;5083385;28;20025;-61
2022/04/29 02:13:47;;;;;;;4.60;2.97;;;15.90;64.20;;;;;;5083605;28;20491;-61
2022/04/29 02:16:13;;;;;;;4.32;3.50;;;15.90;64.30;;;;;;5047405;28;20032;-61
2022/04/29 02:18:38;;;;;;;4.35;3.47;;;15.80;64.20;;;;;;5047978;28;20047;-61
2022/04/29 02:21:04;;;;;;;4.30;3.45;;;15.80;64.30;;;;;;5083183;28;20032;-62
2022/04/29 02:23:30;;;;;;;4.35;3.05;;;15.80;64.40;;;;;;5083932;28;20167;-62
2022/04/29 02:25:57;;;;;;;5.00;3.17;;;15.80;64.50;;;;;;5081554;28;20031;-62
2022/04/29 02:28:23;;;;;;;3.72;2.92;;;15.80;64.60;;;;;;5056759;28;20105;-61
2022/04/29 02:30:48;;;;;;;7.43;3.35;;;15.70;64.60;;;;;;5061506;28;20497;-61
2022/04/29 02:33:14;;;;;;;6.78;3.25;;;15.70;64.70;;;;;;5063180;28;20044;-61
2022/04/29 02:35:39;;;;;;;3.53;3.10;;;15.70;64.80;;;;;;5082553;28;20032;-61
2022/04/29 02:38:05;;;;;;;3.65;3.10;;;15.70;64.80;;;;;;5062915;28;20027;-61
2022/04/29 02:40:30;;;;;;;5.18;2.80;;;15.70;64.80;;;;;;5053036;28;20035;-60
2022/04/29 02:42:56;;;;;;;3.45;2.80;;;15.70;64.90;;;;;;5082915;28;20396;-61
2022/04/29 02:45:22;;;;;;;3.70;2.92;;;15.60;64.90;;;;;;5080565;28;20047;-61
2022/04/29 02:47:47;;;;;;;6.82;3.42;;;15.60;64.90;;;;;;5083125;28;20032;-62
2022/04/29 02:50:13;;;;;;;6.70;3.30;;;15.50;65.00;;;;;;5083059;28;20035;-61
2022/04/29 02:52:38;;;;;;;3.15;2.85;;;15.50;65.00;;;;;;5082946;28;20048;-60
2022/04/29 02:55:04;;;;;;;4.28;2.72;;;15.50;65.90;;;;;;5081564;28;20024;-61
2022/04/29 02:57:30;;;;;;;4.78;2.95;;;15.40;65.20;;;;;;5086780;28;20119;-61
2022/04/29 02:59:56;;;;;;;5.53;3.47;;;15.30;65.20;;;;;;5081725;28;20473;-61
2022/04/29 03:02:21;;;;;;;4.47;3.20;;;15.40;65.30;;;;;;5086692;28;20527;-61
2022/04/29 03:04:47;;;;;;;4.05;2.75;;;15.30;65.30;;;;;;5056947;28;20132;-61
2022/04/29 03:07:12;;;;;;;4.80;3.25;;;15.40;65.50;;;;;;5079395;28;20028;-62
2022/04/29 03:09:38;;;;;;;6.32;3.40;;;15.40;65.50;;;;;;5067144;28;20036;-62
2022/04/29 03:12:03;;;;;;;4.95;3.10;;;15.30;65.50;;;;;;5067539;28;20043;-61
2022/04/29 03:14:29;;;;;;;4.78;2.80;;;15.30;65.50;;;;;;5085719;28;20714;-62
2022/04/29 03:16:54;;;;;;;8.10;3.10;;;15.20;65.50;;;;;;5063046;28;20017;-61
2022/04/29 03:19:20;;;;;;;5.18;3.22;;;15.20;65.60;;;;;;5086152;28;20028;-62
2022/04/29 03:21:46;;;;;;;3.70;3.10;;;15.20;65.60;;;;;;5086537;28;20028;-61
2022/04/29 03:24:11;;;;;;;3.90;3.42;;;15.20;65.70;;;;;;5086636;28;20510;-62
2022/04/29 03:26:37;;;;;;;3.72;2.92;;;15.20;65.80;;;;;;5085638;28;20145;-61
2022/04/29 03:29:03;;;;;;;4.55;3.22;;;15.20;65.80;;;;;;5052615;28;20019;-61
2022/04/29 03:31:28;;;;;;;4.03;3.05;;;15.20;65.90;;;;;;5048839;28;20025;-61
2022/04/29 03:33:54;;;;;;;3.90;3.00;;;15.10;65.90;;;;;;5086422;28;20328;-62
2022/04/29 03:36:20;;;;;;;3.67;3.25;;;15.10;66.00;;;;;;5064372;28;20040;-61
2022/04/29 03:38:45;;;;;;;4.30;3.17;;;15.10;66.00;;;;;;5086799;28;20402;-61
2022/04/29 03:41:12;;;;;;;4.00;3.55;;;15.00;66.00;;;;;;5066282;28;20078;-62
2022/04/29 03:43:37;;;;;;;4.80;3.05;;;15.00;66.10;;;;;;5086344;28;20062;-61
2022/04/29 03:46:05;;;;;;;6.47;3.10;;;15.00;66.30;;;;;;5062375;28;20032;-62
2022/04/29 03:49:35;;;;;;;3.65;3.25;;;14.90;66.20;;;;;;5086218;28;20032;-61
2022/04/29 03:51:16;;;;;;;2.97;2.53;;;14.90;66.30;;;;;;5055771;28;20054;-61
2022/04/29 03:53:41;;;;;;;3.50;3.05;;;14.90;66.30;;;;;;5085719;28;20615;-61
2022/04/29 03:56:07;;;;;;;4.72;2.95;;;14.90;66.40;;;;;;5085690;28;20036;-62
2022/04/29 03:58:32;;;;;;;5.13;3.42;;;14.90;66.50;;;;;;5059328;28;20036;-61
2022/04/29 04:00:58;;;;;;;3.72;3.05;;;14.80;66.50;;;;;;5080841;28;20119;-62
2022/04/29 04:03:23;;;;;;;4.22;3.15;;;14.80;66.60;;;;;;5062290;28;20039;-62
2022/04/29 04:08:35;;;;;;;4.82;3.13;;;14.80;66.70;;;;;;5066678;28;20074;-62
2022/04/29 04:11:01;;;;;;;4.35;2.97;;;14.80;66.70;;;;;;5083960;28;20063;-61
2022/04/29 04:13:27;;;;;;;4.72;3.58;;;14.70;66.70;;;;;;5085631;28;20111;-62
2022/04/29 04:15:52;;;;;;;4.15;3.08;;;14.70;66.80;;;;;;5057541;28;20630;-62
2022/04/29 04:18:17;;;;;;;4.85;3.10;;;14.70;66.90;;;;;;5084569;28;20043;-61
2022/04/29 04:20:43;;;;;;;4.68;3.00;;;14.70;66.90;;;;;;5084876;28;20032;-61
2022/04/29 04:23:09;;;;;;;3.40;2.88;;;14.60;66.90;;;;;;5085224;28;20444;-60
2022/04/29 04:25:34;;;;;;;4.80;3.42;;;14.60;67.00;;;;;;5074316;28;20457;-61
2022/04/29 04:28:00;;;;;;;5.00;3.50;;;14.60;66.90;;;;;;5050212;28;20109;-62
2022/04/29 04:30:25;;;;;;;3.10;2.80;;;14.60;67.00;;;;;;5083677;28;20036;-61
2022/04/29 04:32:51;;;;;;;5.25;3.00;;;14.60;67.10;;;;;;5048112;28;20081;-62
2022/04/29 04:35:17;;;;;;;3.40;3.10;;;14.50;67.10;;;;;;5065663;28;20020;-61
2022/04/29 04:37:43;;;;;;;5.22;3.20;;;14.50;67.10;;;;;;5084707;28;20020;-61
2022/04/29 04:40:10;;;;;;;3.10;2.80;;;14.50;67.10;;;;;;5062597;28;20035;-61
2022/04/29 04:42:45;;;;;;;4.15;2.80;;;14.50;67.20;;;;;;5058032;28;20507;-61
2022/04/29 04:45:11;;;;;;;3.17;2.88;;;14.50;67.20;;;;;;5056729;28;20089;-61
2022/04/29 04:47:36;;;;;;;3.63;3.00;;;14.40;67.20;;;;;;5065855;28;20107;-61
2022/04/29 04:50:02;;;;;;;5.30;3.13;;;14.40;67.30;;;;;;5084043;28;20130;-62
2022/04/29 04:52:27;;;;;;;5.28;3.15;;;14.40;67.30;;;;;;5083659;28;20271;-61
2022/04/29 04:54:53;;;;;;;3.40;3.00;;;14.40;67.30;;;;;;5082038;28;20113;-62
2022/04/29 04:57:18;;;;;;;3.53;2.80;;;14.40;67.30;;;;;;5084225;28;20036;-62
2022/04/29 04:59:44;;;;;;;5.38;3.58;;;14.40;67.30;;;;;;5083732;28;20032;-62
2022/04/29 05:02:09;;;;;;;3.47;3.15;;;14.40;67.40;;;;;;5082582;28;20056;-62
2022/04/29 05:04:35;;;;;;;4.93;3.15;;;14.40;67.40;;;;;;5064763;28;20477;-61
2022/04/29 05:07:01;;;;;;;3.42;3.03;;;14.30;67.40;;;;;;5061836;28;20066;-60
2022/04/29 05:09:26;;;;;;;3.88;3.00;;;14.30;67.40;;;;;;5083845;28;20047;-62
2022/04/29 05:11:52;;;;;;;4.38;2.97;;;14.30;67.40;;;;;;5046301;28;20493;-62
2022/04/29 05:14:17;;;;;;;4.40;3.10;;;14.30;67.40;;;;;;5064662;28;20064;-61
2022/04/29 05:16:43;;;;;;;3.40;2.83;;;14.30;67.50;;;;;;5084028;28;20028;-62
2022/04/29 05:19:08;;;;;;;3.85;2.95;;;14.30;67.50;;;;;;5053994;28;20280;-62
2022/04/29 05:21:34;;;;;;;3.38;3.00;;;14.30;67.50;;;;;;5083584;28;20043;-61
2022/04/29 05:23:59;;;;;;;7.03;3.15;;;14.30;67.50;;;;;;5062053;28;20047;-61
2022/04/29 05:26:25;;;;;;;3.45;3.15;;;14.30;67.50;;;;;;5078117;28;20021;-62
2022/04/29 05:28:50;;;;;;;6.50;3.35;;;14.30;67.40;;;;;;5082291;28;20040;-61
2022/04/29 05:31:16;;;;;;;5.50;3.30;;;14.30;67.40;;;;;;5080477;28;20087;-61
2022/04/29 05:33:41;;;;;;;8.40;3.60;;;14.30;67.50;;;;;;5061132;28;20032;-62
2022/04/29 05:36:07;;;;;;;3.65;3.25;;;14.30;67.50;;;;;;5031409;28;20568;-62
2022/04/29 05:44:03;;;;;;;4.95;3.90;;;14.20;67.50;;;;;;5060054;28;20419;-62
2022/04/29 05:46:29;;;;;;;4.13;3.67;;;14.30;67.60;;;;;;5057498;28;20036;-61
2022/04/29 05:48:54;;;;;;;7.20;4.20;;;14.20;67.50;;;;;;5080146;28;20035;-61
2022/04/29 05:51:20;;;;;;;5.60;3.97;;;14.20;67.60;;;;;;5081934;28;20460;-62
2022/04/29 05:53:45;;;;;;;4.85;4.32;;;14.30;67.50;;;;;;5081598;28;20832;-61
2022/04/29 05:56:11;;;;;;;5.43;3.90;;;14.20;67.50;;;;;;5061015;28;20076;-61
2022/04/29 05:58:36;;;;;;;4.05;3.65;;;14.20;67.50;;;;;;5059102;28;20036;-61
2022/04/29 06:01:02;;;;;;;4.20;3.75;;;14.20;67.50;;;;;;5073632;28;20036;-61
2022/04/29 06:03:27;;;;;;;7.40;4.03;;;14.20;67.60;;;;;;5052504;28;20058;-61
2022/04/29 06:05:53;;;;;;;7.28;3.88;;;14.40;67.60;;;;;;5079343;28;20031;-61
2022/04/29 06:08:18;;;;;;;8.13;4.05;;;14.20;67.40;;;;;;5076405;28;20043;-60
2022/04/29 06:10:44;;;;;;;7.10;4.28;;;14.20;67.40;;;;;;5071958;28;20075;-61
2022/04/29 06:13:09;;;;;;;8.23;4.57;;;14.20;67.40;;;;;;5036860;28;20444;-61
2022/04/29 06:15:35;;;;;;;5.72;4.00;;;14.20;67.40;;;;;;5071565;28;20047;-61
2022/04/29 06:18:01;;;;;;;5.28;4.30;;;14.20;67.40;;;;;;5056880;28;20036;-61
2022/04/29 06:20:27;;;;;;;7.15;4.93;;;14.20;67.40;;;;;;5052599;28;20033;-61
2022/04/29 06:22:52;;;;;;;7.95;5.88;;;14.20;67.40;;;;;;5060591;28;20080;-61
2022/04/29 06:25:20;;;;;;;8.07;5.50;;;14.20;67.40;;;;;;5057525;28;20051;-61
2022/04/29 06:27:46;;;;;;;6.78;4.97;;;14.30;67.40;;;;;;5054214;28;20131;-62
2022/04/29 06:30:12;;;;;;;6.57;5.00;;;14.30;67.40;;;;;;5074828;28;20033;-61
2022/04/29 06:32:37;;;;;;;12.05;5.38;;;14.30;67.40;;;;;;5080065;28;20111;-62
2022/04/29 06:35:06;;;;;;;10.23;5.18;;;14.30;67.30;;;;;;5076112;28;20044;-60
2022/04/29 06:37:31;;;;;;;7.80;4.75;;;14.30;67.30;;;;;;5082581;28;20479;-61
2022/04/29 06:39:57;;;;;;;9.77;4.88;;;14.30;67.30;;;;;;5084650;28;20037;-61
2022/04/29 06:42:22;;;;;;;5.80;4.45;;;14.30;67.30;;;;;;5080292;28;20089;-61
2022/04/29 06:44:48;;;;;;;6.95;4.88;;;14.30;67.20;;;;;;5050778;28;20032;-60
2022/04/29 06:47:13;;;;;;;7.78;4.72;;;14.30;67.20;;;;;;5080913;28;20042;-61
2022/04/29 06:49:39;;;;;;;6.47;4.63;;;14.40;67.20;;;;;;5078420;28;20799;-60
2022/04/29 06:52:04;;;;;;;9.43;4.88;;;14.30;67.20;;;;;;5069030;28;20466;-61
2022/04/29 06:54:30;;;;;;;8.68;6.13;;;14.40;67.20;;;;;;5043040;28;20141;-60
2022/04/29 06:56:55;;;;;;;11.00;6.80;;;14.40;67.20;;;;;;5070402;28;20453;-60
2022/04/29 06:59:21;;;;;;;11.88;6.50;;;14.40;67.20;;;;;;5076143;28;20482;-60
2022/04/29 07:01:46;;;;;;;10.73;6.10;;;14.40;67.10;;;;;;5046808;28;20048;-61
2022/04/29 07:04:12;;;;;;;11.73;5.57;;;14.40;67.10;;;;;;5068633;28;20043;-61
2022/04/29 07:06:37;;;;;;;17.90;6.60;;;14.40;66.90;;;;;;5065669;28;20051;-61
2022/04/29 07:09:04;;;;;;;11.27;6.75;;;14.40;67.00;;;;;;5076193;28;20115;-61
2022/04/29 07:11:31;;;;;;;10.85;6.38;;;14.40;66.90;;;;;;5063200;28;20047;-61
2022/04/29 07:13:57;;;;;;;7.97;6.07;;;14.40;66.90;;;;;;5026007;28;20040;-61
2022/04/29 07:16:22;;;;;;;15.02;6.03;;;14.40;66.80;;;;;;5047057;28;20042;-61
2022/04/29 07:18:48;;;;;;;11.85;5.68;;;14.40;66.80;;;;;;5072320;28;20092;-61
2022/04/29 07:21:13;;;;;;;8.07;5.72;;;14.40;66.80;;;;;;5069876;28;20048;-61
2022/04/29 07:23:39;;;;;;;9.75;5.60;;;14.40;66.80;;;;;;5058971;28;20038;-61
2022/04/29 07:26:04;;;;;;;9.90;5.40;;;14.50;66.80;;;;;;5073268;28;20040;-61
2022/04/29 07:28:30;;;;;;;9.50;5.13;;;14.40;66.60;;;;;;5076808;28;20064;-61
2022/04/29 07:30:57;;;;;;;13.73;5.72;;;14.40;66.70;;;;;;5061197;28;20031;-61
2022/04/29 07:33:23;;;;;;;8.20;5.60;;;14.50;66.70;;;;;;5062452;28;20083;-61
2022/04/29 07:44:01;;;;;;;12.63;6.75;;;14.50;66.50;;;;;;5061099;28;20288;-62
2022/04/29 07:46:26;;;;;;;12.18;6.85;;;14.50;66.60;;;;;;5054518;28;20452;-61
2022/04/29 07:48:52;;;;;;;8.63;6.68;;;14.40;66.60;;;;;;5056076;28;20532;-61
2022/04/29 07:51:18;;;;;;;13.70;7.28;;;14.50;66.60;;;;;;5077297;28;20103;-61
2022/04/29 07:53:43;;;;;;;11.88;7.50;;;14.50;66.60;;;;;;5073091;28;20036;-61
2022/04/29 07:56:09;;;;;;;11.95;7.13;;;14.60;66.80;;;;;;5042250;28;20036;-61
2022/04/29 07:58:34;;;;;;;9.07;6.80;;;14.60;66.60;;;;;;5075748;28;20028;-61
2022/04/29 08:01:01;;;;;;;10.75;7.03;;;14.60;66.60;;;;;;5075163;28;20135;-61
2022/04/29 08:03:27;;;;;;;12.43;8.02;;;14.50;66.60;;;;;;5041600;28;20089;-61
2022/04/29 08:05:53;;;;;;;13.93;7.82;;;14.60;66.60;;;;;;5061602;28;20401;-61
2022/04/29 08:08:19;;;;;;;8.82;7.80;;;14.60;66.70;;;;;;5056171;28;20044;-61
2022/04/29 08:10:45;;;;;;;12.90;7.60;;;14.60;66.90;;;;;;5073474;28;20352;-61
2022/04/29 08:13:11;;;;;;;12.43;7.65;;;14.70;66.80;;;;;;5041988;28;20081;-61
2022/04/29 08:15:36;;;;;;;8.38;7.25;;;14.70;66.90;;;;;;5057075;28;20468;-60
2022/04/29 08:18:03;;;;;;;10.70;7.03;;;14.70;67.50;;;;;;5072347;28;20020;-61
2022/04/29 08:20:29;;;;;;;10.48;6.50;;;14.70;66.80;;;;;;5053650;28;20036;-60
2022/04/29 08:22:54;;;;;;;16.00;7.03;;;14.70;66.70;;;;;;5056386;28;20047;-61
2022/04/29 08:25:20;;;;;;;9.77;6.93;;;14.80;66.70;;;;;;5077124;28;20063;-60
2022/04/29 08:27:46;;;;;;;10.80;7.15;;;14.80;66.70;;;;;;5059719;28;20028;-61
2022/04/29 08:30:12;;;;;;;13.02;6.70;;;14.80;66.70;;;;;;5040229;28;20016;-61
2022/04/29 08:32:45;;;;;;;15.27;7.18;;;14.80;66.80;;;;;;5052939;28;20040;-61
2022/04/29 08:35:11;;;;;;;10.15;6.90;;;14.90;66.90;;;;;;5059781;28;20491;-61
2022/04/29 08:37:38;;;;;;;10.63;6.80;;;14.90;66.90;;;;;;5040527;28;20086;-61
2022/04/29 08:40:07;;;;;;;11.00;6.43;;;14.80;66.90;;;;;;5057008;28;20044;-61
2022/04/29 08:42:37;;;;;;;12.48;6.30;;;14.90;67.00;;;;;;5051632;28;20691;-60
2022/04/29 08:45:06;;;;;;;13.38;7.53;;;14.90;66.90;;;;;;5056577;28;20115;-61
2022/04/29 08:47:34;;;;;;;12.23;6.40;;;14.90;66.90;;;;;;5058326;28;20020;-61
2022/04/29 08:50:00;;;;;;;10.30;6.28;;;15.00;66.90;;;;;;5075811;28;20455;-61
2022/04/29 08:52:26;;;;;;;7.72;6.53;;;15.00;67.00;;;;;;5037818;28;20038;-61
2022/04/29 09:00:23;;;;;;;11.45;6.53;;;15.00;66.80;;;;;;5073161;28;20131;-61
2022/04/29 09:02:48;;;;;;;9.45;6.82;;;15.00;66.80;;;;;;5054334;28;20044;-61
2022/04/29 09:05:14;;;;;;;11.13;7.07;;;15.10;66.80;;;;;;5074621;28;20034;-60
2022/04/29 09:07:56;;;;;;;13.73;6.97;;;15.10;66.80;;;;;;5074663;28;20038;-61
2022/04/29 09:10:22;;;;;;;11.00;7.20;;;14.90;66.70;;;;;;5055955;28;20047;-61
2022/04/29 09:12:48;;;;;;;12.57;7.40;;;15.10;66.80;;;;;;5052821;28;20097;-61
2022/04/29 09:15:14;;;;;;;12.75;7.63;;;15.20;66.80;;;;;;5072165;28;20059;-61
2022/04/29 09:17:44;;;;;;;10.70;7.13;;;15.20;67.00;;;;;;5054274;28;20038;-61
2022/04/29 09:20:16;;;;;;;10.27;6.78;;;15.20;67.00;;;;;;5052732;28;20023;-61
2022/04/29 09:22:43;;;;;;;10.70;6.55;;;15.20;66.90;;;;;;5055393;28;20024;-62
2022/04/29 09:25:09;;;;;;;14.65;6.68;;;15.20;66.90;;;;;;5054145;28;20024;-62
2022/04/29 09:28:02;;;;;;;8.15;6.13;;;15.30;67.00;;;;;;5073845;28;20034;-61
2022/04/29 09:30:46;;;;;;;11.10;6.70;;;15.10;66.60;;;;;;5070973;28;20040;-61
2022/04/29 09:33:19;;;;;;;11.50;5.88;;;15.30;66.90;;;;;;5052612;28;20514;-61
2022/04/29 09:35:46;;;;;;;10.23;6.90;;;15.40;67.10;;;;;;5055869;28;20028;-60
2022/04/29 09:40:56;;;;;;;8.65;6.43;;;15.40;67.00;;;;;;5044327;28;20042;-61
2022/04/29 09:43:42;;;;;;;9.20;6.82;;;15.50;66.80;;;;;;5072894;28;20012;-61
2022/04/29 09:46:17;;;;;;;8.02;6.22;;;15.50;66.80;;;;;;5070464;28;20032;-61
2022/04/29 09:49:08;;;;;;;10.90;6.27;;;15.50;66.60;;;;;;5070918;28;20032;-62
2022/04/29 09:51:41;;;;;;;9.95;7.03;;;15.60;66.70;;;;;;5053654;28;20028;-60
2022/04/29 09:54:17;;;;;;;9.95;6.45;;;15.60;66.80;;;;;;5054357;28;20053;-61
2022/04/29 09:57:07;;;;;;;8.60;5.95;;;15.70;66.80;;;;;;5037006;28;20048;-61
2022/04/29 09:59:49;;;;;;;10.55;5.70;;;15.70;66.50;;;;;;5058234;28;20439;-61
2022/04/29 10:02:21;;;;;;;13.75;5.97;;;15.80;66.50;;;;;;5040965;28;20095;-61
2022/04/29 10:04:47;;;;;;;9.52;5.57;;;15.80;66.40;;;;;;5053852;28;20174;-60
2022/04/29 10:07:13;;;;;;;13.10;5.50;;;15.80;66.30;;;;;;5055987;28;20048;-61
2022/04/29 10:09:40;;;;;;;6.80;5.47;;;15.90;66.30;;;;;;5074676;28;20028;-61
2022/04/29 10:12:16;;;;;;;8.80;6.03;;;15.90;66.20;;;;;;5057651;28;20036;-61
2022/04/29 10:14:43;;;;;;;6.65;5.72;;;16.00;66.20;;;;;;5041706;28;20020;-61
2022/04/29 10:22:49;;;;;;;10.57;6.82;;;16.10;66.10;;;;;;5062550;28;20062;-60
2022/04/29 10:25:15;;;;;;;8.93;5.70;;;16.10;66.00;;;;;;5040863;28;20024;-61
2022/04/29 10:27:40;;;;;;;8.52;6.07;;;16.20;66.00;;;;;;5045251;28;20054;-61
2022/04/29 10:30:07;;;;;;;10.00;6.07;;;16.20;65.90;;;;;;5058619;28;20028;-60
2022/04/29 10:32:58;;;;;;;9.85;6.05;;;16.20;65.90;;;;;;5059524;28;20205;-62
2022/04/29 10:35:45;;;;;;;9.02;5.88;;;16.30;65.80;;;;;;5079508;28;20031;-61
2022/04/29 10:38:37;;;;;;;9.30;5.45;;;16.30;65.70;;;;;;5077869;28;20031;-62
2022/04/29 10:41:16;;;;;;;7.05;5.00;;;16.40;65.50;;;;;;5059988;28;20570;-61
2022/04/29 10:43:50;;;;;;;8.55;5.22;;;16.50;65.40;;;;;;5081590;28;20036;-61
2022/04/29 10:46:22;;;;;;;13.13;5.63;;;16.50;65.30;;;;;;5075496;28;20081;-60
2022/04/29 10:48:52;;;;;;;11.98;5.90;;;16.50;65.20;;;;;;5075073;28;20471;-61
2022/04/29 10:51:18;;;;;;;6.70;5.10;;;16.60;65.40;;;;;;5037423;28;20060;-62
2022/04/29 10:53:46;;;;;;;13.13;5.57;;;16.60;65.00;;;;;;5055920;28;20028;-61
2022/04/29 10:56:30;;;;;;;11.48;8.50;;;16.60;64.90;;;;;;5076097;28;20067;-61
2022/04/29 10:59:06;;;;;;;11.65;6.95;;;16.80;65.00;;;;;;5075295;28;20043;-61
2022/04/29 11:01:34;;;;;;;12.05;6.50;;;16.80;64.80;;;;;;5056929;28;20054;-61
2022/04/29 11:04:00;;;;;;;14.80;7.25;;;16.80;64.50;;;;;;5063787;28;20380;-61
2022/04/29 11:06:44;;;;;;;14.07;6.18;;;16.90;64.50;;;;;;5076955;28;20032;-61
2022/04/29 11:09:31;;;;;;;10.98;6.32;;;17.00;64.30;;;;;;5072701;28;20161;-61
2022/04/29 11:11:58;;;;;;;10.75;6.22;;;17.10;64.10;;;;;;5052974;28;20033;-61
2022/04/29 11:14:23;;;;;;;7.95;6.05;;;17.10;64.00;;;;;;5051292;28;23178;-61
2022/04/29 11:16:55;;;;;;;12.43;6.30;;;17.20;63.90;;;;;;5073466;28;20032;-61
2022/04/29 11:19:22;;;;;;;15.93;6.20;;;17.30;63.80;;;;;;5058927;28;20050;-60
2022/04/29 11:24:48;;;;;;;11.93;5.38;;;17.50;63.40;;;;;;5078301;28;20043;-61
2022/04/29 11:27:14;;;;;;;10.27;5.70;;;17.50;63.30;;;;;;5058563;28;20115;-64
2022/04/29 11:29:43;;;;;;;19.10;9.27;;;17.60;63.10;;;;;;5039297;28;20050;-61
2022/04/29 11:32:09;;;;;;;9.75;6.13;;;17.70;63.10;;;;;;5078397;28;20152;-61
2022/04/29 11:34:34;;;;;;;9.43;6.00;;;17.80;63.10;;;;;;5058840;28;20452;-61
2022/04/29 11:37:00;;;;;;;7.72;4.93;;;17.90;62.90;;;;;;5049446;28;20027;-61
2022/04/29 11:39:25;;;;;;;7.45;5.45;;;17.90;62.70;;;;;;5052078;28;20024;-61
2022/04/29 11:41:58;;;;;;;11.70;6.05;;;18.00;62.70;;;;;;5084730;28;20483;-65
2022/04/29 11:44:38;;;;;;;15.07;6.32;;;18.00;62.70;;;;;;5056458;28;20574;-62
2022/04/29 11:47:04;;;;;;;12.43;5.80;;;18.00;62.70;;;;;;5060965;28;20044;-61
2022/04/29 11:49:32;;;;;;;11.07;5.88;;;18.00;62.70;;;;;;5050061;28;20058;-62
2022/04/29 11:52:20;;;;;;;9.90;5.82;;;18.10;62.80;;;;;;5057819;28;20028;-61
2022/04/29 11:54:52;;;;;;;17.08;5.47;;;18.10;62.80;;;;;;5061721;28;20116;-61
2022/04/29 11:57:18;;;;;;;14.05;6.05;;;18.20;62.70;;;;;;5080350;28;20032;-62
2022/04/29 11:59:44;;;;;;;13.35;5.75;;;18.20;62.70;;;;;;5045589;28;20051;-62
2022/04/29 12:02:10;;;;;;;10.50;5.80;;;18.30;62.60;;;;;;5080564;28;20044;-61
2022/04/29 12:04:35;;;;;;;10.73;5.88;;;18.40;62.60;;;;;;5060835;28;20094;-61
2022/04/29 12:07:02;;;;;;;12.35;5.80;;;18.40;62.40;;;;;;5045144;28;20055;-61
2022/04/29 12:09:32;;;;;;;10.90;5.53;;;18.50;62.20;;;;;;5078756;28;20020;-61
2022/04/29 12:11:59;;;;;;;10.88;5.53;;;18.60;61.90;;;;;;5079948;28;20152;-61
2022/04/29 12:14:25;;;;;;;12.57;5.38;;;18.70;61.80;;;;;;5080270;28;20064;-62
2022/04/29 12:16:51;;;;;;;12.63;5.57;;;18.70;61.60;;;;;;5047020;28;20026;-61
2022/04/29 12:19:18;;;;;;;13.82;5.50;;;18.80;61.50;;;;;;5055578;28;20040;-61
2022/04/29 12:21:56;;;;;;;9.18;5.03;;;18.90;61.50;;;;;;5059659;28;20036;-62
2022/04/29 12:24:23;;;;;;;11.98;5.55;;;19.00;61.40;;;;;;5075053;28;20036;-61
2022/04/29 12:27:04;;;;;;;11.10;5.18;;;19.10;61.10;;;;;;5073335;28;20474;-62
2022/04/29 12:29:30;;;;;;;6.60;4.97;;;19.20;60.80;;;;;;5070303;28;20123;-61
2022/04/29 12:34:49;;;;;;;10.30;5.55;;;19.30;60.70;;;;;;5072377;28;20034;-60
2022/04/29 12:37:14;;;;;;;6.35;4.70;;;19.40;60.60;;;;;;5041582;28;20413;-62
2022/04/29 12:39:43;;;;;;;7.90;4.75;;;19.50;60.30;;;;;;5070489;28;20044;-61
2022/04/29 12:42:12;;;;;;;11.70;4.55;;;19.60;60.20;;;;;;5059473;28;20060;-62
2022/04/29 12:47:32;;;;;;;9.32;4.43;;;19.70;60.00;;;;;;5061397;28;20039;-61
2022/04/29 12:50:28;;;;;;;8.50;4.82;;;19.90;60.00;;;;;;5056575;28;20028;-61
2022/04/29 12:52:58;;;;;;;6.70;4.77;;;19.90;59.80;;;;;;5058475;28;20436;-61
2022/04/29 12:55:24;;;;;;;14.80;5.38;;;20.00;59.80;;;;;;5079236;28;20020;-61
2022/04/29 12:57:50;;;;;;;17.88;5.15;;;20.10;60.00;;;;;;5059026;28;20039;-61
2022/04/29 13:00:25;;;;;;;9.18;4.90;;;20.10;59.30;;;;;;5056246;28;20376;-61
2022/04/29 13:03:10;;;;;;;14.55;4.70;;;20.30;59.30;;;;;;5077356;28;20048;-62
2022/04/29 13:05:37;;;;;;;15.38;4.60;;;20.30;59.20;;;;;;5042469;28;20040;-61
2022/04/29 13:08:03;;;;;;;17.05;5.30;;;20.40;59.20;;;;;;5078022;28;20340;-61
2022/04/29 13:10:29;;;;;;;26.00;4.90;;;20.50;59.10;;;;;;5073122;28;20045;-62
2022/04/29 13:12:55;;;;;;;15.93;5.40;;;20.60;59.10;;;;;;5044518;28;20223;-61
2022/04/29 13:15:21;;;;;;;18.23;5.10;;;20.60;58.80;;;;;;5057585;28;20036;-62
2022/04/29 13:17:47;;;;;;;14.85;5.57;;;20.60;59.40;;;;;;5047144;28;20438;-62
2022/04/29 13:20:12;;;;;;;20.77;5.03;;;20.70;58.60;;;;;;5059310;28;20558;-61
2022/04/29 13:22:39;;;;;;;9.18;4.28;;;20.80;58.50;;;;;;5074571;28;20123;-61
2022/04/29 13:25:06;;;;;;;16.38;4.72;;;20.80;58.30;;;;;;5041749;28;20016;-61